Dai2kousei — JD2542 — position and weather

sailwx.info

Track history (hours):
 
Tides and Currents Weather Stations Pressure Air Temp Water Temp Dewpoint Dewpoint Depression Visibility Wind Speed Wind Dir Waves Ship Positions

Dai2kousei

Last reported at 2015-Aug-04 22:33 UTC. Time now 2015-Aug-05 02:20 UTC.
Position N 34°02' E 135°00'.

Length 77 m; draft 3.7 m.

MMSI: 431000467.

Date/timePositionNaut miles runAvg speedWind from/ knotsBaromVisibWave heightAir tempDewpointWater temp
2015-Aug-04 22:33N 34°02' E 135°00'1111.3
2015-Aug-04 21:34N 34°13' E 135°05'2 2.3
2015-Aug-04 20:34N 34°15' E 135°07'0 0.0
2015-Aug-04 19:34N 34°15' E 135°07'0 0.0
2015-Aug-04 18:34N 34°15' E 135°07'0 0.0
2015-Aug-04 17:34N 34°15' E 135°07'0 0.0
2015-Aug-04 16:34N 34°15' E 135°07'0 0.0
2015-Aug-04 15:34N 34°15' E 135°07'0 0.0
2015-Aug-04 14:34N 34°15' E 135°07'0 0.0
2015-Aug-04 13:34N 34°15' E 135°07'0 0.0
2015-Aug-04 12:34N 34°15' E 135°07'0 0.0
2015-Aug-04 11:33N 34°15' E 135°07'0 0.0
2015-Aug-04 10:34N 34°15' E 135°07'0 0.0
2015-Aug-04 09:33N 34°15' E 135°07'0 0.0
2015-Aug-04 08:34N 34°15' E 135°07'1 1.1
2015-Aug-04 07:34N 34°15' E 135°06'0 0.0
2015-Aug-04 06:34N 34°15' E 135°06'0 0.0
2015-Aug-04 05:34N 34°15' E 135°06'0 0.0
2015-Aug-04 04:33N 34°15' E 135°06'0 0.0
2015-Aug-04 03:33N 34°15' E 135°06'0 0.1
2015-Aug-04 02:33N 34°15' E 135°06'0 0.0
2015-Aug-04 01:29N 34°15' E 135°06'0 0.0
2015-Aug-04 00:33N 34°15' E 135°06'0 0.0
2015-Aug-03 23:34N 34°15' E 135°06'0 0.0
2015-Aug-03 22:32N 34°15' E 135°06'0 0.0
2015-Aug-03 21:34N 34°15' E 135°06'0 0.0
2015-Aug-03 20:34N 34°15' E 135°06'0 0.0
2015-Aug-03 19:33N 34°15' E 135°06'0 0.0
2015-Aug-03 18:34N 34°15' E 135°06'0 0.0
2015-Aug-03 17:34N 34°15' E 135°06'3 2.6
2015-Aug-03 16:34N 34°12' E 135°04'8 0.2
2015-Aug-01 22:33N 34°05' E 135°01'1010.4
2015-Aug-01 21:34N 34°14' E 135°06'1 1.0
2015-Aug-01 20:34N 34°15' E 135°07'0 0.0
2015-Aug-01 19:33N 34°15' E 135°07'0 0.0
2015-Aug-01 18:34N 34°15' E 135°07'0 0.0
2015-Aug-01 17:34N 34°15' E 135°07'0 0.0
2015-Aug-01 16:33N 34°15' E 135°07'0 0.0
2015-Aug-01 15:33N 34°15' E 135°07'0 0.0
2015-Aug-01 14:34N 34°15' E 135°07'0 0.0
2015-Aug-01 13:34N 34°15' E 135°07'0 0.0
2015-Aug-01 12:33N 34°15' E 135°07'0 0.0
2015-Aug-01 11:34N 34°15' E 135°07'0 0.0
2015-Aug-01 10:33N 34°15' E 135°07'1 0.6
2015-Aug-01 09:33N 34°15' E 135°06'0 0.1
2015-Aug-01 08:33N 34°15' E 135°06'0 0.0
2015-Aug-01 07:34N 34°15' E 135°06'0 0.0
2015-Aug-01 06:34N 34°15' E 135°06'0 0.0
2015-Aug-01 05:33N 34°15' E 135°06'0 0.0
2015-Aug-01 04:34N 34°15' E 135°06'0 0.0
2015-Aug-01 03:34N 34°15' E 135°06'0 0.0
2015-Aug-01 02:33N 34°15' E 135°06'0 0.0
2015-Aug-01 01:33N 34°15' E 135°06'0 0.0
2015-Aug-01 00:33N 34°15' E 135°06'0 0.1
2015-Jul-31 23:33N 34°15' E 135°06'0 0.0
2015-Jul-31 22:33N 34°15' E 135°06'0 0.1
2015-Jul-31 21:33N 34°15' E 135°06'0 0.0
2015-Jul-31 20:33N 34°15' E 135°06'0 0.1
2015-Jul-31 19:33N 34°15' E 135°06'0 0.0
2015-Jul-31 18:33N 34°15' E 135°06'0 0.1
2015-Jul-31 17:34N 34°15' E 135°06'0 0.0
2015-Jul-31 16:34N 34°15' E 135°06'5 5.0
2015-Jul-31 15:34N 34°11' E 135°03'  
2015-Jul-26 08:33N 34°07' E 135°03'8 8.4
2015-Jul-26 07:34N 34°14' E 135°06'1 0.5
2015-Jul-26 06:33N 34°15' E 135°07'0 0.0
2015-Jul-26 05:33N 34°15' E 135°07'0 0.0
2015-Jul-26 04:33N 34°15' E 135°07'0 0.0
2015-Jul-26 03:34N 34°15' E 135°07'0 0.0
2015-Jul-26 02:33N 34°15' E 135°07'0 0.0
2015-Jul-26 01:34N 34°15' E 135°07'0 0.0
2015-Jul-26 00:34N 34°15' E 135°07'0 0.0
2015-Jul-25 23:33N 34°15' E 135°07'0 0.0
2015-Jul-25 22:33N 34°15' E 135°07'  
Track history (hours):
 
Tides and Currents Weather Stations Pressure Air Temp Water Temp Dewpoint Dewpoint Depression Visibility Wind Speed Wind Dir Waves Ship Positions

Dai2kousei

Last reported at 2015-Aug-04 22:33 UTC. Time now 2015-Aug-05 02:20 UTC.
Position N 34°02' E 135°00'.

Length 77 m; draft 3.7 m.

MMSI: 431000467.

Date/timePositionNaut miles runAvg speedWind from/ knotsBaromVisibWave heightAir tempDewpointWater temp
2015-Aug-04 22:33N 34°02' E 135°00'1111.3
2015-Aug-04 21:34N 34°13' E 135°05'2 2.3
2015-Aug-04 20:34N 34°15' E 135°07'0 0.0
2015-Aug-04 19:34N 34°15' E 135°07'0 0.0
2015-Aug-04 18:34N 34°15' E 135°07'0 0.0
2015-Aug-04 17:34N 34°15' E 135°07'0 0.0
2015-Aug-04 16:34N 34°15' E 135°07'0 0.0
2015-Aug-04 15:34N 34°15' E 135°07'0 0.0
2015-Aug-04 14:34N 34°15' E 135°07'0 0.0
2015-Aug-04 13:34N 34°15' E 135°07'0 0.0
2015-Aug-04 12:34N 34°15' E 135°07'0 0.0
2015-Aug-04 11:33N 34°15' E 135°07'0 0.0
2015-Aug-04 10:34N 34°15' E 135°07'0 0.0
2015-Aug-04 09:33N 34°15' E 135°07'0 0.0
2015-Aug-04 08:34N 34°15' E 135°07'1 1.1
2015-Aug-04 07:34N 34°15' E 135°06'0 0.0
2015-Aug-04 06:34N 34°15' E 135°06'0 0.0
2015-Aug-04 05:34N 34°15' E 135°06'0 0.0
2015-Aug-04 04:33N 34°15' E 135°06'0 0.0
2015-Aug-04 03:33N 34°15' E 135°06'0 0.1
2015-Aug-04 02:33N 34°15' E 135°06'0 0.0
2015-Aug-04 01:29N 34°15' E 135°06'0 0.0
2015-Aug-04 00:33N 34°15' E 135°06'0 0.0
2015-Aug-03 23:34N 34°15' E 135°06'0 0.0
2015-Aug-03 22:32N 34°15' E 135°06'0 0.0
2015-Aug-03 21:34N 34°15' E 135°06'0 0.0
2015-Aug-03 20:34N 34°15' E 135°06'0 0.0
2015-Aug-03 19:33N 34°15' E 135°06'0 0.0
2015-Aug-03 18:34N 34°15' E 135°06'0 0.0
2015-Aug-03 17:34N 34°15' E 135°06'3 2.6
2015-Aug-03 16:34N 34°12' E 135°04'8 0.2
2015-Aug-01 22:33N 34°05' E 135°01'1010.4
2015-Aug-01 21:34N 34°14' E 135°06'1 1.0
2015-Aug-01 20:34N 34°15' E 135°07'0 0.0
2015-Aug-01 19:33N 34°15' E 135°07'0 0.0
2015-Aug-01 18:34N 34°15' E 135°07'0 0.0
2015-Aug-01 17:34N 34°15' E 135°07'0 0.0
2015-Aug-01 16:33N 34°15' E 135°07'0 0.0
2015-Aug-01 15:33N 34°15' E 135°07'0 0.0
2015-Aug-01 14:34N 34°15' E 135°07'0 0.0
2015-Aug-01 13:34N 34°15' E 135°07'0 0.0
2015-Aug-01 12:33N 34°15' E 135°07'0 0.0
2015-Aug-01 11:34N 34°15' E 135°07'0 0.0
2015-Aug-01 10:33N 34°15' E 135°07'1 0.6
2015-Aug-01 09:33N 34°15' E 135°06'0 0.1
2015-Aug-01 08:33N 34°15' E 135°06'0 0.0
2015-Aug-01 07:34N 34°15' E 135°06'0 0.0
2015-Aug-01 06:34N 34°15' E 135°06'0 0.0
2015-Aug-01 05:33N 34°15' E 135°06'0 0.0
2015-Aug-01 04:34N 34°15' E 135°06'0 0.0
2015-Aug-01 03:34N 34°15' E 135°06'0 0.0
2015-Aug-01 02:33N 34°15' E 135°06'0 0.0
2015-Aug-01 01:33N 34°15' E 135°06'0 0.0
2015-Aug-01 00:33N 34°15' E 135°06'0 0.1
2015-Jul-31 23:33N 34°15' E 135°06'0 0.0
2015-Jul-31 22:33N 34°15' E 135°06'0 0.1
2015-Jul-31 21:33N 34°15' E 135°06'0 0.0
2015-Jul-31 20:33N 34°15' E 135°06'0 0.1
2015-Jul-31 19:33N 34°15' E 135°06'0 0.0
2015-Jul-31 18:33N 34°15' E 135°06'0 0.1
2015-Jul-31 17:34N 34°15' E 135°06'0 0.0
2015-Jul-31 16:34N 34°15' E 135°06'5 5.0
2015-Jul-31 15:34N 34°11' E 135°03'  
2015-Jul-26 08:33N 34°07' E 135°03'8 8.4
2015-Jul-26 07:34N 34°14' E 135°06'1 0.5
2015-Jul-26 06:33N 34°15' E 135°07'0 0.0
2015-Jul-26 05:33N 34°15' E 135°07'0 0.0
2015-Jul-26 04:33N 34°15' E 135°07'0 0.0
2015-Jul-26 03:34N 34°15' E 135°07'0 0.0
2015-Jul-26 02:33N 34°15' E 135°07'0 0.0
2015-Jul-26 01:34N 34°15' E 135°07'0 0.0
2015-Jul-26 00:34N 34°15' E 135°07'0 0.0
2015-Jul-25 23:33N 34°15' E 135°07'0 0.0
2015-Jul-25 22:33N 34°15' E 135°07'  

Dump ship's entire track history